Time;durP1;ratioP1;P1;durP2;ratioP2;P2;SDS_P1;SDS_P2;PMS_P1;PMS_P2;Temp;Humidity;BMP_temperature;BMP_pressure;BME280_temperature;BME280_humidity;BME280_pressure;Samples;Min_cycle;Max_cycle;Signal;HPM_P1;HPM_P2
2021/12/18 00:00:16;;;;;;;24.07;16.33;;;;;;;;;;5026054;28;20243;-60
2021/12/18 00:02:42;;;;;;;24.53;16.13;;;;;;;;;;5016473;28;20232;-58
2021/12/18 00:05:08;;;;;;;21.90;16.00;;;;;;;;;;5026585;28;20775;-58
2021/12/18 00:07:35;;;;;;;22.70;15.43;;;;;;;;;;5023245;28;20797;-58
2021/12/18 00:10:01;;;;;;;23.17;15.60;;;;;;;;;;5024352;28;20243;-59
2021/12/18 00:12:27;;;;;;;21.77;15.67;;;;;;;;;;5026029;28;20602;-58
2021/12/18 00:14:53;;;;;;;22.27;15.40;;;;;;;;;;5024508;28;20233;-58
2021/12/18 00:17:19;;;;;;;23.57;15.90;;;;;;;;;;5020942;28;20216;-58
2021/12/18 00:19:45;;;;;;;24.07;16.33;;;;;;;;;;5025219;28;20331;-58
2021/12/18 00:22:11;;;;;;;24.17;16.50;;;;;;;;;;5028194;28;20682;-59
2021/12/18 00:24:37;;;;;;;23.60;16.43;;;;;;;;;;5018887;28;20244;-58
2021/12/18 00:27:03;;;;;;;24.87;16.60;;;;;;;;;;5013762;28;20232;-58
2021/12/18 00:29:29;;;;;;;25.20;17.50;;;;;;;;;;5015367;28;20745;-58
2021/12/18 00:31:55;;;;;;;24.23;16.70;;;;;;;;;;5017606;28;20231;-58
2021/12/18 00:34:21;;;;;;;26.57;16.97;;;;;;;;;;5007382;28;20241;-59
2021/12/18 00:36:47;;;;;;;25.53;17.40;;;;;;;;;;5011101;28;20266;-58
2021/12/18 00:39:13;;;;;;;24.70;16.57;;;;;;;;;;5012574;28;21199;-58
2021/12/18 00:44:13;;;;;;;26.53;17.73;;;;;;;;;;5019681;28;20240;-58
2021/12/18 00:46:40;;;;;;;25.27;17.07;;;;;;;;;;5020687;28;20356;-58
2021/12/18 00:49:06;;;;;;;26.50;17.77;;;;;;;;;;5012592;28;20227;-58
2021/12/18 00:51:32;;;;;;;26.13;17.77;;;;;;;;;;5016086;28;20289;-58
2021/12/18 00:53:58;;;;;;;24.27;17.37;;;;;;;;;;5034300;28;20637;-59
2021/12/18 00:56:24;;;;;;;25.77;17.10;;;;;;;;;;5023643;28;20278;-58
2021/12/18 00:58:51;;;;;;;25.57;17.90;;;;;;;;;;5017015;28;20285;-58
2021/12/18 01:01:21;;;;;;;27.67;18.17;;;;;;;;;;5020864;28;20293;-59
2021/12/18 01:03:48;;;;;;;27.13;18.80;;;;;;;;;;5030140;28;20263;-58
2021/12/18 01:06:14;;;;;;;23.53;17.13;;;;;;;;;;5028650;28;20236;-59
2021/12/18 01:08:40;;;;;;;29.17;18.23;;;;;;;;;;5019882;28;20753;-59
2021/12/18 01:14:04;;;;;;;27.73;19.50;;;;;;;;;;5016478;28;21530;-58
2021/12/18 01:16:42;;;;;;;26.60;18.10;;;;;;;;;;5026293;28;20234;-59
2021/12/18 01:22:54;;;;;;;26.03;17.67;;;;;;;;;;5024488;28;20243;-59
2021/12/18 01:24:48;;;;;;;28.47;20.10;;;;;;;;;;5020831;28;20638;-58
2021/12/18 01:27:15;;;;;;;27.73;18.33;;;;;;;;;;5026971;28;20659;-59
2021/12/18 01:29:40;;;;;;;27.77;19.00;;;;;;;;;;5027311;28;20239;-59
2021/12/18 01:32:07;;;;;;;25.57;18.93;;;;;;;;;;5027948;28;20235;-59
2021/12/18 01:34:33;;;;;;;29.00;19.37;;;;;;;;;;5015216;28;20330;-59
2021/12/18 01:36:59;;;;;;;27.33;19.17;;;;;;;;;;5022524;28;20990;-59
2021/12/18 01:39:25;;;;;;;28.33;20.10;;;;;;;;;;5019696;28;20335;-58
2021/12/18 01:42:11;;;;;;;29.30;20.00;;;;;;;;;;5023814;28;20601;-59
2021/12/18 01:44:57;;;;;;;29.07;19.43;;;;;;;;;;5018357;28;20843;-58
2021/12/18 01:52:53;;;;;;;28.43;19.37;;;;;;;;;;5021698;28;20236;-58
2021/12/18 01:55:27;;;;;;;27.57;19.07;;;;;;;;;;5030955;28;20231;-58
2021/12/18 01:57:53;;;;;;;27.90;19.17;;;;;;;;;;5026721;28;20231;-58
2021/12/18 02:00:20;;;;;;;29.83;19.90;;;;;;;;;;5029569;28;20236;-58
2021/12/18 02:02:45;;;;;;;30.90;20.10;;;;;;;;;;5020760;28;20232;-59
2021/12/18 02:05:12;;;;;;;26.73;19.13;;;;;;;;;;5020088;28;20228;-58
2021/12/18 02:07:38;;;;;;;28.60;19.07;;;;;;;;;;5025576;28;20254;-59
2021/12/18 02:10:08;;;;;;;29.50;19.67;;;;;;;;;;5019276;28;20232;-59
2021/12/18 02:20:45;;;;;;;29.23;19.33;;;;;;;;;;5029906;28;20596;-58
2021/12/18 02:23:11;;;;;;;29.83;19.80;;;;;;;;;;5029704;28;20232;-58
2021/12/18 02:25:37;;;;;;;28.60;18.97;;;;;;;;;;5023463;28;20228;-58
2021/12/18 02:28:13;;;;;;;30.20;19.20;;;;;;;;;;5028806;28;20261;-58
2021/12/18 02:30:40;;;;;;;28.83;18.63;;;;;;;;;;5026719;28;20225;-58
2021/12/18 02:33:05;;;;;;;29.33;19.37;;;;;;;;;;5023196;28;20235;-58
2021/12/18 02:35:35;;;;;;;28.77;18.50;;;;;;;;;;5026928;28;20243;-60
2021/12/18 02:38:12;;;;;;;29.93;19.47;;;;;;;;;;5022462;28;20231;-59
2021/12/18 02:43:17;;;;;;;28.57;17.77;;;;;;;;;;5018643;28;20268;-58
2021/12/18 02:45:43;;;;;;;28.90;18.87;;;;;;;;;;5023639;28;20319;-59
2021/12/18 02:48:09;;;;;;;30.80;19.67;;;;;;;;;;5023034;28;20256;-59
2021/12/18 02:50:39;;;;;;;27.83;18.10;;;;;;;;;;5011510;28;20650;-59
2021/12/18 02:53:05;;;;;;;28.23;18.87;;;;;;;;;;5011529;28;20869;-59
2021/12/18 02:55:31;;;;;;;29.57;18.33;;;;;;;;;;5023802;28;20293;-59
2021/12/18 02:57:57;;;;;;;28.40;19.63;;;;;;;;;;5027896;28;20253;-59
2021/12/18 03:00:25;;;;;;;29.27;18.83;;;;;;;;;;5013041;28;20236;-58
2021/12/18 03:02:51;;;;;;;29.17;19.27;;;;;;;;;;5022069;28;20235;-59
2021/12/18 03:05:24;;;;;;;29.07;19.00;;;;;;;;;;5020589;28;20228;-59
2021/12/18 03:07:57;;;;;;;26.70;18.73;;;;;;;;;;5023305;28;20540;-59
2021/12/18 03:19:26;;;;;;;29.93;18.77;;;;;;;;;;5024230;28;20269;-58
2021/12/18 03:24:43;;;;;;;29.30;19.43;;;;;;;;;;5021728;28;20651;-59
2021/12/18 03:27:09;;;;;;;30.57;18.53;;;;;;;;;;5018646;28;20240;-58
2021/12/18 03:29:35;;;;;;;26.70;18.27;;;;;;;;;;5010750;28;20712;-59
2021/12/18 03:32:01;;;;;;;29.30;18.33;;;;;;;;;;4993483;28;20243;-58
2021/12/18 03:34:26;;;;;;;26.80;18.67;;;;;;;;;;4996912;28;22069;-58
2021/12/18 03:36:53;;;;;;;29.73;19.60;;;;;;;;;;5018784;28;20239;-58
2021/12/18 03:39:19;;;;;;;31.17;19.70;;;;;;;;;;5018471;28;20335;-58
2021/12/18 03:41:45;;;;;;;30.13;20.17;;;;;;;;;;5015856;28;20228;-58
2021/12/18 03:44:11;;;;;;;29.10;19.53;;;;;;;;;;5023069;28;20235;-58
2021/12/18 03:46:37;;;;;;;26.13;18.33;;;;;;;;;;5018750;28;20785;-59
2021/12/18 03:49:03;;;;;;;30.30;19.20;;;;;;;;;;5021927;28;20231;-59
2021/12/18 03:51:29;;;;;;;29.80;19.80;;;;;;;;;;5017300;28;20239;-58
2021/12/18 03:53:55;;;;;;;31.73;20.13;;;;;;;;;;5019375;28;21877;-58
2021/12/18 03:56:21;;;;;;;32.60;20.40;;;;;;;;;;5007423;28;20435;-59
2021/12/18 03:58:47;;;;;;;32.03;20.77;;;;;;;;;;5025729;28;20797;-59
2021/12/18 04:01:13;;;;;;;30.23;20.23;;;;;;;;;;5022424;28;20725;-59
2021/12/18 04:03:39;;;;;;;30.33;19.83;;;;;;;;;;5019331;28;20282;-59
2021/12/18 04:06:05;;;;;;;32.47;20.80;;;;;;;;;;5024269;28;20938;-58
2021/12/18 04:08:31;;;;;;;34.50;21.73;;;;;;;;;;5017308;28;20635;-59
2021/12/18 04:10:57;;;;;;;36.07;21.40;;;;;;;;;;5022640;28;20286;-59
2021/12/18 04:13:23;;;;;;;32.37;21.70;;;;;;;;;;5017291;28;20529;-59
2021/12/18 04:15:49;;;;;;;35.90;22.73;;;;;;;;;;5023364;28;21066;-59
2021/12/18 04:18:14;;;;;;;33.13;21.17;;;;;;;;;;5024689;28;20324;-59
2021/12/18 04:20:40;;;;;;;31.80;21.23;;;;;;;;;;5007897;28;20320;-59
2021/12/18 04:23:06;;;;;;;35.97;21.90;;;;;;;;;;5015400;28;20224;-59
2021/12/18 04:25:32;;;;;;;35.47;23.20;;;;;;;;;;5000332;28;20701;-59
2021/12/18 04:27:58;;;;;;;35.70;22.23;;;;;;;;;;5001565;28;20224;-58
2021/12/18 04:30:24;;;;;;;35.50;22.23;;;;;;;;;;5015264;28;20247;-59
2021/12/18 04:32:50;;;;;;;35.10;21.83;;;;;;;;;;5015288;28;20582;-59
2021/12/18 04:35:16;;;;;;;34.67;21.47;;;;;;;;;;5012274;28;20235;-59
2021/12/18 04:37:42;;;;;;;34.00;21.60;;;;;;;;;;5021703;28;20579;-58
2021/12/18 04:40:09;;;;;;;35.23;22.57;;;;;;;;;;5016901;28;20317;-59
2021/12/18 04:42:35;;;;;;;36.00;23.17;;;;;;;;;;5016139;28;20586;-59
2021/12/18 04:45:01;;;;;;;35.50;22.80;;;;;;;;;;5016239;28;20227;-59
2021/12/18 04:47:27;;;;;;;34.30;22.50;;;;;;;;;;5017849;28;20763;-59
2021/12/18 04:49:53;;;;;;;33.93;21.93;;;;;;;;;;5019918;28;20223;-59
2021/12/18 04:52:19;;;;;;;36.60;24.00;;;;;;;;;;5013715;28;20261;-59
2021/12/18 04:54:45;;;;;;;34.30;23.03;;;;;;;;;;5012044;28;20236;-59
2021/12/18 04:57:11;;;;;;;36.70;22.93;;;;;;;;;;5017480;28;20326;-59
2021/12/18 04:59:43;;;;;;;34.00;22.67;;;;;;;;;;5026744;28;20235;-59
2021/12/18 05:02:09;;;;;;;34.37;23.13;;;;;;;;;;5026136;28;20273;-59
2021/12/18 05:04:35;;;;;;;33.30;22.83;;;;;;;;;;5034021;28;20237;-59
2021/12/18 05:07:01;;;;;;;35.73;23.20;;;;;;;;;;5023652;28;20228;-59
2021/12/18 05:09:27;;;;;;;36.53;23.60;;;;;;;;;;5026955;28;20331;-58
2021/12/18 05:11:53;;;;;;;38.07;23.40;;;;;;;;;;5024842;28;20261;-59
2021/12/18 05:14:19;;;;;;;35.00;22.90;;;;;;;;;;5029807;28;20232;-58
2021/12/18 05:16:45;;;;;;;36.47;23.60;;;;;;;;;;5022542;28;20229;-59
2021/12/18 05:19:11;;;;;;;37.67;24.23;;;;;;;;;;5006223;28;20236;-59
2021/12/18 05:21:37;;;;;;;35.40;23.73;;;;;;;;;;5019105;28;20791;-58
2021/12/18 05:24:03;;;;;;;38.47;23.30;;;;;;;;;;5021069;28;20279;-58
2021/12/18 05:26:29;;;;;;;37.53;24.43;;;;;;;;;;5034112;28;20234;-60
2021/12/18 05:28:55;;;;;;;36.73;24.27;;;;;;;;;;5019043;28;20303;-59
2021/12/18 05:31:21;;;;;;;40.87;25.33;;;;;;;;;;5027017;28;20693;-59
2021/12/18 05:33:49;;;;;;;35.27;23.00;;;;;;;;;;5020336;28;20580;-58
2021/12/18 05:38:56;;;;;;;38.20;23.83;;;;;;;;;;5019156;28;20378;-59
2021/12/18 05:41:22;;;;;;;34.53;23.90;;;;;;;;;;5023113;28;20274;-59
2021/12/18 05:43:48;;;;;;;38.63;24.47;;;;;;;;;;5018093;28;20689;-59
2021/12/18 05:46:14;;;;;;;36.73;24.17;;;;;;;;;;5004145;28;20236;-58
2021/12/18 05:48:40;;;;;;;33.27;23.03;;;;;;;;;;5017682;28;20265;-59
2021/12/18 05:51:06;;;;;;;37.90;24.17;;;;;;;;;;5012882;28;20327;-59
2021/12/18 05:53:33;;;;;;;36.07;24.00;;;;;;;;;;5017404;28;20713;-58
2021/12/18 05:55:58;;;;;;;35.27;23.93;;;;;;;;;;5021971;28;20342;-59
2021/12/18 05:58:24;;;;;;;39.83;24.77;;;;;;;;;;5017716;28;20332;-59
2021/12/18 06:00:50;;;;;;;35.37;23.47;;;;;;;;;;5025171;28;20242;-59
2021/12/18 06:03:16;;;;;;;38.83;25.20;;;;;;;;;;5019300;28;20235;-60
2021/12/18 06:05:42;;;;;;;36.20;25.17;;;;;;;;;;5021110;28;20265;-59
2021/12/18 06:08:12;;;;;;;35.97;23.90;;;;;;;;;;5021405;28;20236;-59
2021/12/18 06:10:38;;;;;;;37.93;24.43;;;;;;;;;;5016705;28;21049;-59
2021/12/18 06:13:04;;;;;;;35.80;24.73;;;;;;;;;;5026405;28;20326;-59
2021/12/18 06:15:31;;;;;;;36.43;24.83;;;;;;;;;;5008326;28;20237;-59
2021/12/18 06:17:57;;;;;;;38.13;25.37;;;;;;;;;;5015818;28;20240;-59
2021/12/18 06:20:23;;;;;;;34.47;23.10;;;;;;;;;;5013832;28;20240;-59
2021/12/18 06:22:49;;;;;;;38.03;24.87;;;;;;;;;;5015671;28;20266;-59
2021/12/18 06:25:15;;;;;;;39.83;25.40;;;;;;;;;;5010990;28;20374;-59
2021/12/18 06:27:41;;;;;;;37.27;24.23;;;;;;;;;;5015080;28;20271;-59
2021/12/18 06:30:09;;;;;;;40.73;24.77;;;;;;;;;;5020925;28;20370;-59
2021/12/18 06:32:35;;;;;;;38.17;24.33;;;;;;;;;;5018003;28;20614;-59
2021/12/18 06:35:01;;;;;;;43.70;26.07;;;;;;;;;;5016243;28;20705;-59
2021/12/18 06:37:27;;;;;;;41.50;25.53;;;;;;;;;;5012927;28;20587;-59
2021/12/18 06:39:53;;;;;;;40.53;25.23;;;;;;;;;;5011046;28;20242;-59
2021/12/18 06:42:19;;;;;;;44.77;26.27;;;;;;;;;;5013122;28;21811;-59
2021/12/18 06:44:45;;;;;;;46.43;25.33;;;;;;;;;;5016497;28;22072;-59
2021/12/18 06:47:11;;;;;;;42.43;24.97;;;;;;;;;;5018071;28;20323;-59
2021/12/18 06:49:37;;;;;;;42.27;24.40;;;;;;;;;;5019619;28;20239;-59
2021/12/18 06:52:03;;;;;;;46.70;25.23;;;;;;;;;;5011937;28;20318;-59
2021/12/18 06:54:29;;;;;;;42.83;26.37;;;;;;;;;;5015693;28;20232;-59
2021/12/18 06:56:55;;;;;;;40.67;25.00;;;;;;;;;;5013225;28;20223;-60
2021/12/18 06:59:21;;;;;;;42.67;25.43;;;;;;;;;;5023464;28;20693;-59
2021/12/18 07:01:47;;;;;;;45.53;26.70;;;;;;;;;;5030364;28;20220;-59
2021/12/18 07:04:13;;;;;;;44.60;25.57;;;;;;;;;;5023366;28;20782;-59
2021/12/18 07:06:39;;;;;;;44.63;25.97;;;;;;;;;;5022447;28;20243;-59
2021/12/18 07:09:05;;;;;;;41.83;24.53;;;;;;;;;;5010965;28;20713;-59
2021/12/18 07:11:31;;;;;;;43.97;25.10;;;;;;;;;;5018394;28;20259;-59
2021/12/18 07:13:57;;;;;;;47.63;25.87;;;;;;;;;;5019353;28;20246;-59
2021/12/18 07:16:23;;;;;;;45.13;24.97;;;;;;;;;;5018889;28;20320;-59
2021/12/18 07:18:51;;;;;;;50.87;25.83;;;;;;;;;;5005646;28;20249;-59
2021/12/18 07:21:17;;;;;;;45.53;24.87;;;;;;;;;;5003321;28;20481;-59
2021/12/18 07:23:43;;;;;;;45.73;26.37;;;;;;;;;;5005821;28;20768;-59
2021/12/18 07:26:09;;;;;;;47.33;25.93;;;;;;;;;;4991309;28;20238;-59
2021/12/18 07:28:35;;;;;;;47.87;26.87;;;;;;;;;;5000110;28;20239;-59
2021/12/18 07:31:01;;;;;;;44.10;25.07;;;;;;;;;;5016666;28;21004;-59
2021/12/18 07:33:27;;;;;;;48.00;26.27;;;;;;;;;;5023987;28;21236;-59
2021/12/18 07:35:53;;;;;;;50.10;26.07;;;;;;;;;;5014699;28;20232;-59
2021/12/18 07:38:19;;;;;;;46.90;27.63;;;;;;;;;;5005395;28;20730;-59
2021/12/18 07:40:45;;;;;;;46.73;26.20;;;;;;;;;;5016261;28;20741;-59
2021/12/18 07:43:10;;;;;;;48.77;27.27;;;;;;;;;;5003457;28;20985;-59
2021/12/18 07:45:37;;;;;;;46.00;25.63;;;;;;;;;;5006497;28;20242;-59
2021/12/18 07:48:03;;;;;;;54.77;27.40;;;;;;;;;;4998669;28;20247;-60
2021/12/18 07:50:29;;;;;;;49.03;25.73;;;;;;;;;;5005800;28;20737;-60
2021/12/18 07:52:55;;;;;;;50.90;26.60;;;;;;;;;;5012666;28;20228;-60
2021/12/18 07:55:21;;;;;;;46.67;25.20;;;;;;;;;;5015143;28;20320;-60
2021/12/18 07:57:47;;;;;;;52.23;27.67;;;;;;;;;;5000187;28;20227;-60
2021/12/18 08:00:15;;;;;;;54.03;26.83;;;;;;;;;;5020580;28;20263;-60
2021/12/18 08:02:41;;;;;;;54.30;26.93;;;;;;;;;;5009929;28;20306;-60
2021/12/18 08:05:07;;;;;;;52.13;27.40;;;;;;;;;;5004904;28;20252;-59
2021/12/18 08:07:33;;;;;;;53.07;26.50;;;;;;;;;;5001377;28;20240;-60
2021/12/18 08:09:59;;;;;;;53.77;26.77;;;;;;;;;;5005857;28;20258;-60
2021/12/18 08:12:25;;;;;;;56.30;27.73;;;;;;;;;;5014887;28;20302;-60
2021/12/18 08:14:51;;;;;;;51.37;26.60;;;;;;;;;;5009784;28;20270;-59
2021/12/18 08:17:17;;;;;;;49.53;25.60;;;;;;;;;;5018702;28;20228;-60
2021/12/18 08:19:43;;;;;;;49.47;25.30;;;;;;;;;;5020670;28;20235;-59
2021/12/18 08:22:09;;;;;;;55.17;26.73;;;;;;;;;;5018871;28;20236;-59
2021/12/18 08:24:34;;;;;;;49.60;26.33;;;;;;;;;;5007365;28;20266;-59
2021/12/18 08:27:00;;;;;;;51.37;25.57;;;;;;;;;;5009045;28;20278;-59
2021/12/18 08:29:27;;;;;;;52.03;27.77;;;;;;;;;;5016998;28;20884;-59
2021/12/18 08:31:52;;;;;;;56.53;27.03;;;;;;;;;;5014968;28;20224;-59
2021/12/18 08:34:19;;;;;;;49.93;26.40;;;;;;;;;;5018153;28;20239;-59
2021/12/18 08:36:45;;;;;;;50.77;26.13;;;;;;;;;;5017368;28;20258;-59
2021/12/18 08:39:11;;;;;;;46.13;26.03;;;;;;;;;;5014585;28;20884;-59
2021/12/18 08:41:38;;;;;;;51.87;25.37;;;;;;;;;;5021112;28;20232;-59
2021/12/18 08:44:04;;;;;;;50.50;25.47;;;;;;;;;;5012031;28;20323;-59
2021/12/18 08:46:30;;;;;;;54.20;25.50;;;;;;;;;;5011574;28;20651;-60
2021/12/18 08:48:56;;;;;;;48.37;25.83;;;;;;;;;;5009823;28;20236;-59
2021/12/18 08:51:22;;;;;;;51.07;25.17;;;;;;;;;;5022930;28;20220;-59
2021/12/18 08:53:48;;;;;;;49.97;25.90;;;;;;;;;;5013300;28;20235;-59
2021/12/18 08:56:14;;;;;;;50.97;25.50;;;;;;;;;;5017925;28;24007;-59
2021/12/18 08:58:40;;;;;;;48.73;25.60;;;;;;;;;;5012892;28;20294;-59
2021/12/18 09:01:06;;;;;;;53.37;26.57;;;;;;;;;;5018322;28;20227;-59
2021/12/18 09:03:32;;;;;;;52.80;25.57;;;;;;;;;;5019089;28;20239;-59
2021/12/18 09:05:58;;;;;;;48.50;24.60;;;;;;;;;;5016175;28;20270;-60
2021/12/18 09:08:24;;;;;;;49.47;25.37;;;;;;;;;;5013763;28;20231;-59
2021/12/18 09:10:50;;;;;;;48.20;25.60;;;;;;;;;;5012720;28;20246;-60
2021/12/18 09:13:16;;;;;;;52.50;25.63;;;;;;;;;;5015214;28;20231;-59
2021/12/18 09:15:42;;;;;;;47.70;25.90;;;;;;;;;;5012685;28;20258;-59
2021/12/18 09:18:09;;;;;;;48.47;25.17;;;;;;;;;;5021804;28;20988;-60
2021/12/18 09:20:35;;;;;;;51.93;25.67;;;;;;;;;;5018172;28;20268;-59
2021/12/18 09:23:01;;;;;;;50.73;25.83;;;;;;;;;;5015895;28;20319;-59
2021/12/18 09:25:27;;;;;;;50.27;25.43;;;;;;;;;;5019732;28;20235;-60
2021/12/18 09:27:56;;;;;;;47.57;24.70;;;;;;;;;;5020893;28;20335;-59
2021/12/18 09:30:22;;;;;;;49.07;25.17;;;;;;;;;;5024892;28;20251;-60
2021/12/18 09:32:48;;;;;;;51.80;25.47;;;;;;;;;;5015541;28;20355;-60
2021/12/18 09:35:15;;;;;;;48.87;24.87;;;;;;;;;;5012233;28;20233;-59
2021/12/18 09:37:41;;;;;;;45.47;24.63;;;;;;;;;;5021434;28;20239;-60
2021/12/18 09:40:07;;;;;;;54.67;26.53;;;;;;;;;;5019019;28;20606;-60
2021/12/18 09:42:34;;;;;;;50.57;25.50;;;;;;;;;;5026615;28;20761;-59
2021/12/18 09:45:00;;;;;;;51.63;24.93;;;;;;;;;;5016667;28;20235;-61
2021/12/18 09:47:26;;;;;;;51.93;24.40;;;;;;;;;;5029732;28;20236;-58
2021/12/18 09:49:52;;;;;;;48.50;25.57;;;;;;;;;;5030673;28;21280;-60
2021/12/18 09:52:18;;;;;;;45.67;24.20;;;;;;;;;;5031657;28;21415;-60
2021/12/18 09:54:43;;;;;;;52.03;25.80;;;;;;;;;;5030018;28;20265;-59
2021/12/18 09:57:09;;;;;;;48.77;25.03;;;;;;;;;;5022569;28;20223;-60
2021/12/18 09:59:36;;;;;;;51.53;24.97;;;;;;;;;;5022350;28;20339;-59
2021/12/18 10:02:02;;;;;;;43.83;23.87;;;;;;;;;;5021538;28;20235;-60
2021/12/18 10:04:29;;;;;;;52.77;24.87;;;;;;;;;;5014767;28;20262;-60
2021/12/18 10:06:57;;;;;;;48.13;24.90;;;;;;;;;;5020299;28;20232;-60
2021/12/18 10:09:25;;;;;;;47.00;24.03;;;;;;;;;;5029755;28;20471;-60
2021/12/18 10:11:52;;;;;;;46.80;24.47;;;;;;;;;;5026632;28;20244;-60
2021/12/18 10:14:19;;;;;;;44.93;22.87;;;;;;;;;;5028936;28;20340;-60
2021/12/18 10:16:49;;;;;;;47.90;25.37;;;;;;;;;;5022978;28;20785;-59
2021/12/18 10:19:25;;;;;;;44.30;23.47;;;;;;;;;;5034445;28;20248;-59
2021/12/18 10:21:59;;;;;;;47.43;25.00;;;;;;;;;;5029579;28;20318;-60
2021/12/18 10:24:25;;;;;;;41.67;22.97;;;;;;;;;;5026064;28;20237;-60
2021/12/18 10:26:51;;;;;;;45.70;23.57;;;;;;;;;;5019908;28;20335;-60
2021/12/18 10:29:24;;;;;;;45.30;23.23;;;;;;;;;;5023337;28;20658;-60
2021/12/18 10:31:50;;;;;;;45.50;24.10;;;;;;;;;;5021496;28;20239;-60
2021/12/18 10:34:17;;;;;;;48.87;24.03;;;;;;;;;;5020093;28;24854;-59
2021/12/18 10:36:43;;;;;;;43.00;23.43;;;;;;;;;;5028762;28;20227;-59
2021/12/18 10:39:09;;;;;;;44.90;23.67;;;;;;;;;;5031379;28;20319;-59
2021/12/18 10:41:35;;;;;;;42.77;21.53;;;;;;;;;;5001022;28;20230;-59
2021/12/18 10:44:09;;;;;;;43.23;21.37;;;;;;;;;;5018795;28;20783;-59
2021/12/18 10:46:53;;;;;;;41.30;21.43;;;;;;;;;;5013035;28;20255;-59
2021/12/18 10:49:19;;;;;;;46.70;23.47;;;;;;;;;;5016083;28;20228;-59
2021/12/18 10:51:45;;;;;;;47.60;23.83;;;;;;;;;;5011530;28;20240;-63
2021/12/18 10:54:24;;;;;;;40.60;21.33;;;;;;;;;;5001134;28;20817;-59
2021/12/18 10:56:51;;;;;;;46.53;21.87;;;;;;;;;;5000926;28;20326;-58
2021/12/18 10:59:20;;;;;;;38.67;19.73;;;;;;;;;;5004578;28;20617;-59
2021/12/18 11:01:50;;;;;;;41.03;21.37;;;;;;;;;;5012639;28;20785;-59
2021/12/18 11:04:22;;;;;;;42.73;21.00;;;;;;;;;;5018217;28;20291;-59
2021/12/18 11:06:49;;;;;;;40.87;20.47;;;;;;;;;;5022724;28;20252;-59
2021/12/18 11:09:17;;;;;;;39.77;20.07;;;;;;;;;;5028261;28;20316;-59
2021/12/18 11:14:15;;;;;;;37.77;19.60;;;;;;;;;;5011581;28;20259;-59
2021/12/18 11:16:43;;;;;;;37.73;19.93;;;;;;;;;;5012818;28;20228;-60
2021/12/18 11:19:14;;;;;;;36.53;18.80;;;;;;;;;;5019235;28;20267;-59
2021/12/18 11:21:44;;;;;;;39.17;19.73;;;;;;;;;;5024902;28;21266;-59
2021/12/18 11:24:11;;;;;;;39.70;20.20;;;;;;;;;;5016067;28;20904;-59
2021/12/18 11:26:42;;;;;;;40.03;20.23;;;;;;;;;;5013008;28;20221;-59
2021/12/18 11:29:13;;;;;;;39.73;19.17;;;;;;;;;;5012888;28;20239;-59
2021/12/18 11:31:39;;;;;;;36.53;20.17;;;;;;;;;;5023995;28;20320;-59
2021/12/18 11:34:06;;;;;;;38.53;20.20;;;;;;;;;;5027984;28;20235;-59
2021/12/18 11:36:32;;;;;;;38.07;19.27;;;;;;;;;;5016793;28;20243;-59
2021/12/18 11:38:58;;;;;;;40.57;21.43;;;;;;;;;;5021992;28;20303;-59
2021/12/18 11:41:24;;;;;;;37.90;18.83;;;;;;;;;;5017629;28;20235;-59
2021/12/18 11:43:50;;;;;;;42.43;20.57;;;;;;;;;;5022330;28;20725;-59
2021/12/18 11:46:25;;;;;;;38.40;20.93;;;;;;;;;;5016460;28;20227;-59
2021/12/18 11:48:52;;;;;;;37.97;19.27;;;;;;;;;;5017846;28;20239;-59
2021/12/18 11:51:18;;;;;;;38.73;19.50;;;;;;;;;;5026656;28;20228;-59
2021/12/18 11:53:44;;;;;;;37.10;20.20;;;;;;;;;;5025128;28;20236;-59
2021/12/18 11:56:10;;;;;;;40.03;20.83;;;;;;;;;;5018709;28;20232;-59
2021/12/18 11:58:41;;;;;;;38.73;20.23;;;;;;;;;;5022278;28;20228;-59
2021/12/18 12:01:14;;;;;;;36.13;18.77;;;;;;;;;;5009249;28;20335;-59
2021/12/18 12:03:44;;;;;;;32.43;18.17;;;;;;;;;;5022949;28;20298;-59
2021/12/18 12:06:28;;;;;;;39.60;19.83;;;;;;;;;;5020477;28;20493;-59
2021/12/18 12:09:20;;;;;;;36.33;19.03;;;;;;;;;;5011990;28;20267;-60
2021/12/18 12:12:09;;;;;;;33.47;19.20;;;;;;;;;;5013903;28;20240;-60
2021/12/18 12:14:42;;;;;;;34.93;17.93;;;;;;;;;;5000154;28;20356;-59
2021/12/18 12:17:12;;;;;;;34.53;18.67;;;;;;;;;;5012630;28;20228;-59
2021/12/18 12:19:37;;;;;;;35.50;17.97;;;;;;;;;;5011486;28;20231;-59
2021/12/18 12:22:04;;;;;;;40.87;19.77;;;;;;;;;;5015660;28;20232;-60
2021/12/18 12:24:31;;;;;;;39.33;19.77;;;;;;;;;;5004161;28;20228;-60
2021/12/18 12:27:16;;;;;;;34.83;19.07;;;;;;;;;;5003975;28;20228;-59
2021/12/18 12:29:45;;;;;;;39.23;20.20;;;;;;;;;;5015458;28;20225;-59
2021/12/18 12:32:12;;;;;;;38.43;19.80;;;;;;;;;;5003471;28;20232;-59
2021/12/18 12:34:38;;;;;;;35.73;19.80;;;;;;;;;;5001722;28;20231;-59
2021/12/18 12:37:23;;;;;;;39.83;19.37;;;;;;;;;;5004972;28;20589;-59
2021/12/18 12:39:56;;;;;;;38.63;20.87;;;;;;;;;;5011916;28;20236;-59
2021/12/18 12:42:23;;;;;;;42.23;20.87;;;;;;;;;;5008532;28;20243;-59
2021/12/18 12:45:31;;;;;;;37.70;19.33;;;;;;;;;;5001197;28;20281;-59
2021/12/18 12:47:38;;;;;;;33.73;19.03;;;;;;;;;;5000648;28;20336;-59
2021/12/18 12:50:07;;;;;;;37.73;20.17;;;;;;;;;;5017761;28;20244;-59
2021/12/18 12:52:33;;;;;;;34.77;18.33;;;;;;;;;;5022252;28;20232;-59
2021/12/18 12:55:00;;;;;;;39.10;20.50;;;;;;;;;;5019289;28;20301;-60
2021/12/18 12:57:30;;;;;;;41.07;20.47;;;;;;;;;;5012084;28;20231;-59
2021/12/18 12:59:59;;;;;;;36.00;18.70;;;;;;;;;;5025447;28;20240;-59
2021/12/18 13:02:31;;;;;;;37.07;20.20;;;;;;;;;;5027462;28;20232;-59
2021/12/18 13:05:01;;;;;;;39.93;20.97;;;;;;;;;;5015019;28;20245;-59
2021/12/18 13:07:27;;;;;;;37.17;19.50;;;;;;;;;;5011682;28;20259;-59
2021/12/18 13:09:53;;;;;;;43.10;20.80;;;;;;;;;;4998325;28;20307;-59
2021/12/18 13:12:19;;;;;;;32.00;18.53;;;;;;;;;;5016428;28;20282;-59
2021/12/18 13:14:46;;;;;;;36.10;18.47;;;;;;;;;;5014777;28;20232;-59
2021/12/18 13:17:25;;;;;;;38.13;20.30;;;;;;;;;;5018025;28;20236;-59
2021/12/18 13:19:52;;;;;;;36.37;20.10;;;;;;;;;;5001343;28;22115;-59
2021/12/18 13:22:18;;;;;;;37.47;19.07;;;;;;;;;;5013545;28;20766;-60
2021/12/18 13:24:44;;;;;;;38.33;19.57;;;;;;;;;;5014868;28;20263;-59
2021/12/18 13:27:11;;;;;;;35.60;18.80;;;;;;;;;;5000446;28;20239;-59
2021/12/18 13:29:37;;;;;;;34.53;18.97;;;;;;;;;;5012974;28;20581;-59
2021/12/18 13:32:05;;;;;;;36.17;18.97;;;;;;;;;;5008869;28;20228;-60
2021/12/18 13:34:32;;;;;;;39.50;18.37;;;;;;;;;;5013249;28;20228;-59
2021/12/18 13:36:58;;;;;;;33.27;18.53;;;;;;;;;;5009027;28;20231;-60
2021/12/18 13:39:28;;;;;;;33.00;18.73;;;;;;;;;;4997837;28;20289;-59
2021/12/18 13:41:57;;;;;;;34.73;18.17;;;;;;;;;;5008302;28;20227;-59
2021/12/18 13:44:23;;;;;;;31.50;17.73;;;;;;;;;;5016872;28;20229;-59
2021/12/18 13:46:49;;;;;;;35.70;18.47;;;;;;;;;;5021806;28;20223;-59
2021/12/18 13:49:15;;;;;;;32.27;18.13;;;;;;;;;;5018689;28;20567;-59
2021/12/18 13:51:41;;;;;;;30.93;17.63;;;;;;;;;;5018075;28;20344;-59
2021/12/18 13:54:07;;;;;;;34.27;18.27;;;;;;;;;;5024757;28;20366;-59
2021/12/18 13:56:38;;;;;;;31.57;17.67;;;;;;;;;;5019169;28;20366;-59
2021/12/18 13:59:17;;;;;;;31.27;17.67;;;;;;;;;;5009171;28;20233;-59
2021/12/18 14:01:43;;;;;;;34.40;18.20;;;;;;;;;;5007550;28;20262;-59
2021/12/18 14:04:15;;;;;;;31.80;17.23;;;;;;;;;;4996351;28;20354;-59
2021/12/18 14:06:42;;;;;;;31.60;18.10;;;;;;;;;;5000600;28;20238;-59
2021/12/18 14:09:11;;;;;;;29.43;17.17;;;;;;;;;;5003612;28;20382;-60
2021/12/18 14:11:38;;;;;;;36.97;17.80;;;;;;;;;;5010540;28;20226;-59
2021/12/18 14:14:08;;;;;;;32.57;17.70;;;;;;;;;;5012224;28;20255;-60
2021/12/18 14:16:34;;;;;;;31.70;17.23;;;;;;;;;;5006128;28;20251;-59
2021/12/18 14:19:01;;;;;;;31.87;17.97;;;;;;;;;;5009493;28;20243;-59
2021/12/18 14:21:34;;;;;;;30.80;17.57;;;;;;;;;;5008749;28;20521;-59
2021/12/18 14:24:00;;;;;;;29.87;16.73;;;;;;;;;;5015981;28;20303;-59
2021/12/18 14:26:27;;;;;;;28.10;16.40;;;;;;;;;;5020244;28;20229;-59
2021/12/18 14:28:57;;;;;;;32.40;17.50;;;;;;;;;;5018450;28;20967;-60
2021/12/18 14:31:36;;;;;;;28.57;16.30;;;;;;;;;;5006592;28;20567;-59
2021/12/18 14:34:10;;;;;;;33.13;17.80;;;;;;;;;;5008114;28;20235;-59
2021/12/18 14:36:39;;;;;;;29.10;16.70;;;;;;;;;;5004979;28;25063;-59
2021/12/18 14:39:05;;;;;;;31.53;17.67;;;;;;;;;;5010065;28;20713;-59
2021/12/18 14:41:32;;;;;;;28.97;16.73;;;;;;;;;;5010542;28;20228;-60
2021/12/18 14:44:02;;;;;;;29.77;15.87;;;;;;;;;;4998570;28;20724;-60
2021/12/18 14:46:28;;;;;;;30.37;16.10;;;;;;;;;;5002931;28;20227;-60
2021/12/18 14:48:55;;;;;;;33.10;17.90;;;;;;;;;;4995930;28;20296;-59
2021/12/18 14:51:25;;;;;;;33.67;17.13;;;;;;;;;;5003556;28;20675;-60
2021/12/18 14:53:58;;;;;;;31.93;17.17;;;;;;;;;;5017425;28;20243;-60
2021/12/18 14:56:23;;;;;;;33.37;17.90;;;;;;;;;;5015580;28;20323;-60
2021/12/18 14:58:50;;;;;;;33.17;16.97;;;;;;;;;;5013366;28;20318;-59